BDA228 VOBL-VOHS
Flight info
| Callsign | BDA228 |
|---|---|
| Flight time | 0h 49m |
| Altitude | 31000 |
| Route | LATID7B LATID Q22 SAKRO SARKA8 |
| Aircraft | B738/M-SDE2E3FGHIRWXY/LB1 |
Departure
| Time | 2026-05-05 18:48 |
|---|---|
| Airport | Kempegowda International Airport Bengaluru (VOBL) |
Arrival
| Time | 2026-05-05 19:37 |
|---|---|
| Airport | Rajiv Gandhi International Airport (VOHS) |
| Time | Latitude | Longitude | Altitude | Speed | Heading |
|---|---|---|---|---|---|
| 2026-05-05 17:04 | 13.20172 | 77.70004 | 2968 ft | 0 kts | 180° |
| 2026-05-05 18:34 | 13.20186 | 77.70003 | 2968 ft | 2 kts | 178° |
| 2026-05-05 18:35 | 13.20202 | 77.70002 | 2968 ft | 2 kts | 174° |
| 2026-05-05 18:35 | 13.20219 | 77.70000 | 2968 ft | 2 kts | 166° |
| 2026-05-05 18:35 | 13.20234 | 77.69994 | 2968 ft | 2 kts | 150° |
| 2026-05-05 18:35 | 13.20247 | 77.69983 | 2968 ft | 2 kts | 114° |
| 2026-05-05 18:36 | 13.20250 | 77.69969 | 2968 ft | 1 kts | 92° |
| 2026-05-05 18:36 | 13.20250 | 77.69966 | 2968 ft | 0 kts | 91° |
| 2026-05-05 18:42 | 13.20250 | 77.69970 | 2995 ft | 5 kts | 92° |
| 2026-05-05 18:42 | 13.20249 | 77.70026 | 2968 ft | 9 kts | 91° |
| 2026-05-05 18:42 | 13.20249 | 77.70100 | 2968 ft | 11 kts | 89° |
| 2026-05-05 18:42 | 13.20248 | 77.70174 | 2968 ft | 10 kts | 91° |
| 2026-05-05 18:43 | 13.20247 | 77.70262 | 2968 ft | 19 kts | 90° |
| 2026-05-05 18:43 | 13.20279 | 77.70393 | 2968 ft | 20 kts | 35° |
| 2026-05-05 18:43 | 13.20387 | 77.70393 | 2968 ft | 15 kts | 353° |
| 2026-05-05 18:43 | 13.20491 | 77.70396 | 2969 ft | 15 kts | 14° |
| 2026-05-05 18:44 | 13.20532 | 77.70439 | 2968 ft | 12 kts | 72° |
| 2026-05-05 18:44 | 13.20529 | 77.70553 | 2967 ft | 16 kts | 90° |
| 2026-05-05 18:44 | 13.20527 | 77.70709 | 2967 ft | 23 kts | 90° |
| 2026-05-05 18:44 | 13.20526 | 77.70871 | 2964 ft | 22 kts | 90° |
| 2026-05-05 18:45 | 13.20524 | 77.70979 | 2964 ft | 22 kts | 91° |
| 2026-05-05 18:45 | 13.20523 | 77.71135 | 2965 ft | 26 kts | 91° |
| 2026-05-05 18:45 | 13.20519 | 77.71393 | 2961 ft | 43 kts | 91° |
| 2026-05-05 18:45 | 13.20518 | 77.71693 | 2968 ft | 40 kts | 89° |
| 2026-05-05 18:46 | 13.20517 | 77.71973 | 2967 ft | 38 kts | 90° |
| 2026-05-05 18:46 | 13.20518 | 77.72170 | 2967 ft | 11 kts | 84° |
| 2026-05-05 18:46 | 13.20553 | 77.72202 | 2967 ft | 11 kts | 13° |
| 2026-05-05 18:46 | 13.20631 | 77.72201 | 2968 ft | 14 kts | 354° |
| 2026-05-05 18:47 | 13.20689 | 77.72156 | 2966 ft | 7 kts | 284° |
| 2026-05-05 18:47 | 13.20690 | 77.72021 | 2966 ft | 53 kts | 270° |
| 2026-05-05 18:47 | 13.20693 | 77.71331 | 2967 ft | 137 kts | 270° |
| 2026-05-05 18:47 | 13.20705 | 77.70152 | 3265 ft | 181 kts | 269° |
| 2026-05-05 18:48 | 13.20710 | 77.68811 | 4118 ft | 196 kts | 271° |
| 2026-05-05 18:48 | 13.21128 | 77.67488 | 4609 ft | 191 kts | 303° |
| 2026-05-05 18:48 | 13.21847 | 77.66377 | 4997 ft | 196 kts | 302° |
| 2026-05-05 18:48 | 13.22629 | 77.65093 | 5282 ft | 226 kts | 302° |
| 2026-05-05 18:49 | 13.23490 | 77.63655 | 5489 ft | 251 kts | 302° |
| 2026-05-05 18:49 | 13.24417 | 77.62087 | 5919 ft | 261 kts | 302° |
| 2026-05-05 18:49 | 13.25361 | 77.60478 | 6507 ft | 265 kts | 302° |
| 2026-05-05 18:49 | 13.26336 | 77.58807 | 6882 ft | 281 kts | 302° |
| 2026-05-05 18:50 | 13.27360 | 77.57047 | 7459 ft | 291 kts | 303° |
| 2026-05-05 18:50 | 13.28394 | 77.55268 | 8409 ft | 289 kts | 303° |
| 2026-05-05 18:50 | 13.29666 | 77.53689 | 9313 ft | 286 kts | 325° |
| 2026-05-05 18:50 | 13.31434 | 77.52794 | 10156 ft | 283 kts | 349° |
| 2026-05-05 18:51 | 13.33418 | 77.52706 | 10683 ft | 294 kts | 11° |
| 2026-05-05 18:51 | 13.35366 | 77.53414 | 10975 ft | 309 kts | 27° |
| 2026-05-05 18:51 | 13.37273 | 77.54513 | 10979 ft | 316 kts | 31° |
| 2026-05-05 18:51 | 13.39141 | 77.55682 | 10981 ft | 313 kts | 31° |
| 2026-05-05 18:52 | 13.40995 | 77.56847 | 10979 ft | 312 kts | 31° |
| 2026-05-05 18:52 | 13.42843 | 77.57993 | 11217 ft | 314 kts | 31° |
| 2026-05-05 18:52 | 13.44735 | 77.59150 | 11904 ft | 317 kts | 30° |
| 2026-05-05 18:52 | 13.46642 | 77.60306 | 12790 ft | 318 kts | 30° |
| 2026-05-05 18:53 | 13.48559 | 77.61461 | 13584 ft | 321 kts | 30° |
| 2026-05-05 18:53 | 13.50481 | 77.62617 | 14247 ft | 326 kts | 30° |
| 2026-05-05 18:53 | 13.52469 | 77.63785 | 14844 ft | 333 kts | 26° |
| 2026-05-05 18:53 | 13.54646 | 77.64669 | 15430 ft | 340 kts | 18° |
| 2026-05-05 18:54 | 13.56920 | 77.65408 | 16075 ft | 345 kts | 17° |
| 2026-05-05 18:54 | 13.59230 | 77.66120 | 16708 ft | 350 kts | 16° |
| 2026-05-05 18:54 | 13.61576 | 77.66842 | 17353 ft | 354 kts | 17° |
| 2026-05-05 18:54 | 13.63956 | 77.67584 | 17921 ft | 361 kts | 17° |
| 2026-05-05 18:55 | 13.66384 | 77.68353 | 18454 ft | 367 kts | 17° |
| 2026-05-05 18:55 | 13.68841 | 77.69140 | 18992 ft | 371 kts | 17° |
| 2026-05-05 18:55 | 13.71322 | 77.69941 | 19549 ft | 374 kts | 17° |
| 2026-05-05 18:55 | 13.73820 | 77.70751 | 20076 ft | 379 kts | 17° |
| 2026-05-05 18:56 | 13.76316 | 77.71564 | 20589 ft | 383 kts | 16° |
| 2026-05-05 18:56 | 13.78873 | 77.72397 | 21101 ft | 387 kts | 16° |
| 2026-05-05 18:56 | 13.81414 | 77.73226 | 21589 ft | 391 kts | 16° |
| 2026-05-05 18:56 | 13.84023 | 77.74078 | 22068 ft | 396 kts | 16° |
| 2026-05-05 18:57 | 13.86671 | 77.74942 | 22555 ft | 399 kts | 16° |
| 2026-05-05 18:57 | 13.89342 | 77.75815 | 23028 ft | 403 kts | 15° |
| 2026-05-05 18:57 | 13.91996 | 77.76682 | 23482 ft | 407 kts | 15° |
| 2026-05-05 18:57 | 13.94716 | 77.77571 | 23869 ft | 411 kts | 15° |
| 2026-05-05 18:58 | 13.97443 | 77.78462 | 24283 ft | 412 kts | 15° |
| 2026-05-05 18:58 | 14.00197 | 77.79363 | 24712 ft | 414 kts | 16° |
| 2026-05-05 18:58 | 14.02949 | 77.80263 | 25125 ft | 416 kts | 16° |
| 2026-05-05 18:58 | 14.05707 | 77.81166 | 25611 ft | 415 kts | 16° |
| 2026-05-05 18:59 | 14.08424 | 77.82055 | 26169 ft | 413 kts | 16° |
| 2026-05-05 18:59 | 14.11150 | 77.82948 | 26751 ft | 410 kts | 16° |
| 2026-05-05 18:59 | 14.13872 | 77.83839 | 27287 ft | 409 kts | 16° |
| 2026-05-05 18:59 | 14.16587 | 77.84728 | 27805 ft | 409 kts | 16° |
| 2026-05-05 19:00 | 14.19298 | 77.85616 | 28355 ft | 407 kts | 16° |
| 2026-05-05 19:00 | 14.21991 | 77.86498 | 28856 ft | 407 kts | 16° |
| 2026-05-05 19:00 | 14.27398 | 77.88270 | 28881 ft | 405 kts | 16° |
| 2026-05-05 19:01 | 14.32744 | 77.90023 | 28894 ft | 406 kts | 16° |
| 2026-05-05 19:01 | 14.38142 | 77.91795 | 28897 ft | 407 kts | 16° |
| 2026-05-05 19:02 | 14.43528 | 77.93578 | 29002 ft | 405 kts | 17° |
| 2026-05-05 19:02 | 14.48894 | 77.95375 | 29014 ft | 406 kts | 17° |
| 2026-05-05 19:03 | 14.54249 | 77.97204 | 28997 ft | 408 kts | 17° |
| 2026-05-05 19:03 | 14.59742 | 77.98565 | 28909 ft | 406 kts | 0° |
| 2026-05-05 19:04 | 14.65403 | 77.98614 | 28850 ft | 405 kts | 360° |
| 2026-05-05 19:04 | 14.70995 | 77.99015 | 28840 ft | 405 kts | 5° |
| 2026-05-05 19:05 | 14.76578 | 77.99804 | 28835 ft | 403 kts | 7° |
| 2026-05-05 19:05 | 14.82106 | 78.00728 | 28838 ft | 402 kts | 8° |
| 2026-05-05 19:06 | 14.87590 | 78.01669 | 28843 ft | 401 kts | 8° |
| 2026-05-05 19:06 | 14.93110 | 78.02612 | 28838 ft | 402 kts | 8° |
| 2026-05-05 19:07 | 14.98644 | 78.03554 | 28837 ft | 402 kts | 8° |
| 2026-05-05 19:07 | 15.04181 | 78.04496 | 28836 ft | 403 kts | 8° |
| 2026-05-05 19:08 | 15.09693 | 78.05434 | 28820 ft | 404 kts | 8° |
| 2026-05-05 19:08 | 15.15242 | 78.06378 | 28827 ft | 404 kts | 8° |
| 2026-05-05 19:09 | 15.20799 | 78.07325 | 28821 ft | 404 kts | 8° |
| 2026-05-05 19:09 | 15.26350 | 78.08271 | 28819 ft | 404 kts | 8° |
| 2026-05-05 19:10 | 15.31877 | 78.09214 | 28513 ft | 399 kts | 8° |
| 2026-05-05 19:10 | 15.34599 | 78.09678 | 28267 ft | 394 kts | 7° |
| 2026-05-05 19:10 | 15.37256 | 78.10128 | 28007 ft | 390 kts | 7° |
| 2026-05-05 19:11 | 15.39941 | 78.10570 | 27756 ft | 388 kts | 7° |
| 2026-05-05 19:11 | 15.42605 | 78.11002 | 27515 ft | 387 kts | 7° |
| 2026-05-05 19:11 | 15.45263 | 78.11432 | 27269 ft | 386 kts | 7° |
| 2026-05-05 19:11 | 15.47911 | 78.11860 | 27029 ft | 385 kts | 7° |
| 2026-05-05 19:12 | 15.50602 | 78.12296 | 26308 ft | 396 kts | 7° |
| 2026-05-05 19:12 | 15.53351 | 78.12741 | 25630 ft | 403 kts | 6° |
| 2026-05-05 19:12 | 15.56106 | 78.13189 | 25031 ft | 406 kts | 6° |
| 2026-05-05 19:12 | 15.58905 | 78.13646 | 24604 ft | 404 kts | 6° |
| 2026-05-05 19:13 | 15.61687 | 78.14102 | 24165 ft | 403 kts | 6° |
| 2026-05-05 19:13 | 15.64458 | 78.14555 | 23732 ft | 402 kts | 6° |
| 2026-05-05 19:13 | 15.67187 | 78.15001 | 23292 ft | 400 kts | 6° |
| 2026-05-05 19:13 | 15.69934 | 78.15450 | 22813 ft | 398 kts | 6° |
| 2026-05-05 19:14 | 15.72663 | 78.15897 | 22434 ft | 393 kts | 6° |
| 2026-05-05 19:14 | 15.75360 | 78.16338 | 22062 ft | 389 kts | 7° |
| 2026-05-05 19:14 | 15.78020 | 78.16773 | 21682 ft | 385 kts | 7° |
| 2026-05-05 19:14 | 15.80617 | 78.17198 | 21322 ft | 381 kts | 7° |
| 2026-05-05 19:15 | 15.83224 | 78.17624 | 20954 ft | 377 kts | 7° |
| 2026-05-05 19:15 | 15.85802 | 78.18046 | 20601 ft | 373 kts | 7° |
| 2026-05-05 19:15 | 15.88358 | 78.18464 | 20249 ft | 370 kts | 7° |
| 2026-05-05 19:15 | 15.90892 | 78.18879 | 19896 ft | 367 kts | 7° |
| 2026-05-05 19:16 | 15.93403 | 78.19290 | 19550 ft | 363 kts | 7° |
| 2026-05-05 19:16 | 15.95899 | 78.19699 | 19206 ft | 360 kts | 7° |
| 2026-05-05 19:16 | 15.98368 | 78.20103 | 18872 ft | 358 kts | 7° |
| 2026-05-05 19:16 | 16.00814 | 78.20504 | 18536 ft | 355 kts | 7° |
| 2026-05-05 19:17 | 16.03247 | 78.20903 | 18208 ft | 352 kts | 7° |
| 2026-05-05 19:17 | 16.05660 | 78.21298 | 17841 ft | 350 kts | 8° |
| 2026-05-05 19:17 | 16.08029 | 78.21687 | 17468 ft | 347 kts | 8° |
| 2026-05-05 19:17 | 16.10411 | 78.22078 | 17086 ft | 345 kts | 8° |
| 2026-05-05 19:18 | 16.12774 | 78.22465 | 16717 ft | 343 kts | 8° |
| 2026-05-05 19:18 | 16.15125 | 78.22851 | 16351 ft | 340 kts | 8° |
| 2026-05-05 19:18 | 16.17460 | 78.23235 | 15981 ft | 338 kts | 8° |
| 2026-05-05 19:18 | 16.19783 | 78.23616 | 15621 ft | 336 kts | 8° |
| 2026-05-05 19:19 | 16.22061 | 78.23988 | 15275 ft | 334 kts | 8° |
| 2026-05-05 19:19 | 16.24350 | 78.24359 | 14924 ft | 332 kts | 8° |
| 2026-05-05 19:19 | 16.26624 | 78.24726 | 14576 ft | 329 kts | 8° |
| 2026-05-05 19:19 | 16.28879 | 78.25090 | 14234 ft | 327 kts | 8° |
| 2026-05-05 19:20 | 16.31124 | 78.25453 | 13899 ft | 325 kts | 8° |
| 2026-05-05 19:20 | 16.33352 | 78.25814 | 13548 ft | 323 kts | 8° |
| 2026-05-05 19:20 | 16.35561 | 78.26172 | 13241 ft | 318 kts | 8° |
| 2026-05-05 19:20 | 16.37734 | 78.26524 | 12996 ft | 312 kts | 8° |
| 2026-05-05 19:21 | 16.39870 | 78.26870 | 12743 ft | 307 kts | 8° |
| 2026-05-05 19:21 | 16.41969 | 78.27210 | 12490 ft | 302 kts | 8° |
| 2026-05-05 19:21 | 16.44007 | 78.27541 | 12172 ft | 300 kts | 8° |
| 2026-05-05 19:21 | 16.46089 | 78.27878 | 11681 ft | 304 kts | 7° |
| 2026-05-05 19:22 | 16.48197 | 78.28220 | 11211 ft | 307 kts | 7° |
| 2026-05-05 19:22 | 16.50324 | 78.28565 | 10753 ft | 310 kts | 7° |
| 2026-05-05 19:22 | 16.52466 | 78.28912 | 10292 ft | 312 kts | 7° |
| 2026-05-05 19:22 | 16.54616 | 78.29261 | 9839 ft | 314 kts | 7° |
| 2026-05-05 19:23 | 16.56775 | 78.29611 | 9350 ft | 315 kts | 7° |
| 2026-05-05 19:23 | 16.58943 | 78.29969 | 8993 ft | 312 kts | 7° |
| 2026-05-05 19:23 | 16.61020 | 78.30315 | 8911 ft | 300 kts | 7° |
| 2026-05-05 19:23 | 16.63060 | 78.30657 | 8886 ft | 286 kts | 7° |
| 2026-05-05 19:24 | 16.64991 | 78.30980 | 8889 ft | 278 kts | 7° |
| 2026-05-05 19:24 | 16.66877 | 78.31294 | 8891 ft | 279 kts | 7° |
| 2026-05-05 19:24 | 16.68802 | 78.31614 | 8908 ft | 285 kts | 7° |
| 2026-05-05 19:24 | 16.70866 | 78.31956 | 8933 ft | 315 kts | 7° |
| 2026-05-05 19:25 | 16.73120 | 78.32329 | 8907 ft | 336 kts | 7° |
| 2026-05-05 19:25 | 16.75450 | 78.32718 | 8899 ft | 341 kts | 8° |
| 2026-05-05 19:25 | 16.77787 | 78.33109 | 8894 ft | 339 kts | 8° |
| 2026-05-05 19:25 | 16.80118 | 78.33499 | 8901 ft | 338 kts | 8° |
| 2026-05-05 19:26 | 16.82440 | 78.33888 | 8899 ft | 338 kts | 8° |
| 2026-05-05 19:26 | 16.84767 | 78.34277 | 8903 ft | 338 kts | 8° |
| 2026-05-05 19:26 | 16.87092 | 78.34665 | 8914 ft | 338 kts | 8° |
| 2026-05-05 19:26 | 16.89412 | 78.35052 | 8910 ft | 335 kts | 8° |
| 2026-05-05 19:27 | 16.91662 | 78.35174 | 8907 ft | 322 kts | 350° |
| 2026-05-05 19:27 | 16.93815 | 78.34653 | 8690 ft | 318 kts | 349° |
| 2026-05-05 19:27 | 16.96023 | 78.34387 | 8203 ft | 319 kts | 354° |
| 2026-05-05 19:27 | 16.97489 | 78.34287 | 7890 ft | 319 kts | 355° |
| 2026-05-05 19:28 | 16.99378 | 78.34172 | 7492 ft | 319 kts | 355° |
| 2026-05-05 19:28 | 17.01576 | 78.34027 | 7085 ft | 311 kts | 355° |
| 2026-05-05 19:28 | 17.03665 | 78.33868 | 6967 ft | 290 kts | 354° |
| 2026-05-05 19:28 | 17.05607 | 78.33706 | 6940 ft | 269 kts | 354° |
| 2026-05-05 19:29 | 17.07387 | 78.33552 | 6943 ft | 250 kts | 354° |
| 2026-05-05 19:29 | 17.09052 | 78.33406 | 6941 ft | 231 kts | 353° |
| 2026-05-05 19:29 | 17.10593 | 78.33271 | 6935 ft | 214 kts | 353° |
| 2026-05-05 19:29 | 17.12022 | 78.33120 | 6942 ft | 202 kts | 345° |
| 2026-05-05 19:30 | 17.13209 | 78.32438 | 6993 ft | 196 kts | 312° |
| 2026-05-05 19:30 | 17.13942 | 78.31205 | 6680 ft | 209 kts | 283° |
| 2026-05-05 19:30 | 17.14080 | 78.29685 | 6258 ft | 211 kts | 269° |
| 2026-05-05 19:30 | 17.14053 | 78.28150 | 5772 ft | 211 kts | 267° |
| 2026-05-05 19:31 | 17.14012 | 78.26619 | 5298 ft | 211 kts | 266° |
| 2026-05-05 19:31 | 17.13973 | 78.25082 | 4821 ft | 211 kts | 266° |
| 2026-05-05 19:31 | 17.13950 | 78.24068 | 4508 ft | 211 kts | 267° |
| 2026-05-05 19:31 | 17.14615 | 78.22172 | 3856 ft | 218 kts | 313° |
| 2026-05-05 19:32 | 17.15432 | 78.21579 | 3692 ft | 212 kts | 339° |
| 2026-05-05 19:32 | 17.17234 | 78.21574 | 3609 ft | 191 kts | 25° |
| 2026-05-05 19:32 | 17.18273 | 78.22341 | 3579 ft | 177 kts | 53° |
| 2026-05-05 19:32 | 17.18877 | 78.23401 | 3609 ft | 169 kts | 68° |
| 2026-05-05 19:33 | 17.19195 | 78.24148 | 3601 ft | 169 kts | 70° |
| 2026-05-05 19:33 | 17.19657 | 78.25266 | 3598 ft | 164 kts | 69° |
| 2026-05-05 19:33 | 17.20108 | 78.26358 | 3575 ft | 164 kts | 69° |
| 2026-05-05 19:33 | 17.20558 | 78.27450 | 3593 ft | 163 kts | 69° |
| 2026-05-05 19:34 | 17.21007 | 78.28537 | 3597 ft | 162 kts | 70° |
| 2026-05-05 19:34 | 17.21455 | 78.29622 | 3599 ft | 163 kts | 70° |
| 2026-05-05 19:34 | 17.21907 | 78.30716 | 3601 ft | 165 kts | 69° |
| 2026-05-05 19:35 | 17.22613 | 78.32968 | 3551 ft | 165 kts | 88° |
| 2026-05-05 19:35 | 17.22730 | 78.34167 | 3336 ft | 167 kts | 88° |
| 2026-05-05 19:35 | 17.22779 | 78.35319 | 3170 ft | 149 kts | 91° |
| 2026-05-05 19:35 | 17.22794 | 78.36363 | 2962 ft | 139 kts | 91° |
| 2026-05-05 19:36 | 17.22806 | 78.37353 | 2796 ft | 135 kts | 91° |
| 2026-05-05 19:36 | 17.22820 | 78.38340 | 2586 ft | 135 kts | 90° |
| 2026-05-05 19:36 | 17.22829 | 78.39329 | 2383 ft | 139 kts | 89° |
| 2026-05-05 19:36 | 17.22847 | 78.40339 | 2204 ft | 138 kts | 88° |
| 2026-05-05 19:37 | 17.22859 | 78.41353 | 2032 ft | 141 kts | 88° |
| 2026-05-05 19:37 | 17.22872 | 78.42321 | 1978 ft | 120 kts | 88° |
| 2026-05-05 19:37 | 17.22880 | 78.42958 | 1979 ft | 25 kts | 79° |
| 2026-05-05 19:37 | 17.22918 | 78.43132 | 1980 ft | 24 kts | 68° |
| 2026-05-05 19:38 | 17.22997 | 78.43284 | 1979 ft | 27 kts | 58° |
| 2026-05-05 19:38 | 17.23082 | 78.43435 | 1980 ft | 19 kts | 72° |
| 2026-05-05 19:38 | 17.23091 | 78.43580 | 1979 ft | 20 kts | 89° |
| 2026-05-05 19:38 | 17.23126 | 78.43689 | 1979 ft | 13 kts | 28° |
| 2026-05-05 19:39 | 17.23211 | 78.43697 | 1981 ft | 12 kts | 359° |
| 2026-05-05 19:39 | 17.23296 | 78.43696 | 1979 ft | 12 kts | 358° |
| 2026-05-05 19:39 | 17.23364 | 78.43674 | 1979 ft | 7 kts | 309° |
| 2026-05-05 19:39 | 17.23370 | 78.43626 | 1979 ft | 7 kts | 265° |
| 2026-05-05 19:40 | 17.23365 | 78.43549 | 1979 ft | 12 kts | 267° |
| 2026-05-05 19:40 | 17.23366 | 78.43461 | 1979 ft | 12 kts | 268° |
| 2026-05-05 19:40 | 17.23366 | 78.43376 | 1979 ft | 12 kts | 269° |
| 2026-05-05 19:40 | 17.23364 | 78.43292 | 1980 ft | 11 kts | 269° |
| 2026-05-05 19:41 | 17.23374 | 78.43254 | 1981 ft | 2 kts | 317° |
| 2026-05-05 19:41 | 17.23393 | 78.43247 | 1980 ft | 4 kts | 346° |
| 2026-05-05 19:41 | 17.23419 | 78.43246 | 1981 ft | 4 kts | 360° |
| 2026-05-05 19:41 | 17.23423 | 78.43246 | 1982 ft | 0 kts | 360° |
| 2026-05-05 19:42 | 17.23429 | 78.43246 | 1981 ft | 0 kts | 360° |